Time;durP1;ratioP1;P1;durP2;ratioP2;P2;SDS_P1;SDS_P2;PMS_P1;PMS_P2;Temp;Humidity;BMP_temperature;BMP_pressure;BME280_temperature;BME280_humidity;BME280_pressure;Samples;Min_cycle;Max_cycle;Signal;HPM_P1;HPM_P2
2021/07/13 00:00:43;;;;;;;11.07;9.98;;;23.00;67.10;;;;;;5081363;28;20188;-82
2021/07/13 00:03:12;;;;;;;11.65;10.48;;;23.00;67.20;;;;;;5081473;28;20216;-82
2021/07/13 00:05:38;;;;;;;11.55;10.45;;;23.00;67.20;;;;;;5064695;28;20177;-83
2021/07/13 00:08:07;;;;;;;11.77;10.68;;;23.10;67.20;;;;;;5116668;28;20161;-82
2021/07/13 00:10:37;;;;;;;11.30;10.10;;;23.10;67.20;;;;;;5099037;28;20301;-84
2021/07/13 00:13:03;;;;;;;11.60;10.50;;;23.00;67.30;;;;;;5099530;28;20540;-83
2021/07/13 00:15:35;;;;;;;11.57;10.45;;;23.00;67.20;;;;;;5101016;28;20167;-82
2021/07/13 00:18:05;;;;;;;11.68;10.48;;;23.00;67.30;;;;;;5099140;28;20235;-82
2021/07/13 00:20:32;;;;;;;11.85;10.55;;;23.00;67.30;;;;;;5082249;28;20157;-82
2021/07/13 00:22:59;;;;;;;11.65;10.45;;;23.00;67.30;;;;;;5099253;28;20200;-85
2021/07/13 00:25:27;;;;;;;11.82;10.63;;;23.00;67.30;;;;;;5098822;28;20161;-83
2021/07/13 00:27:52;;;;;;;11.95;10.75;;;23.00;67.30;;;;;;5098484;28;20226;-82
2021/07/13 00:30:19;;;;;;;11.57;10.38;;;23.00;67.30;;;;;;5081687;28;20616;-84
2021/07/13 00:32:44;;;;;;;11.38;10.27;;;23.00;67.30;;;;;;5116559;28;20157;-82
2021/07/13 00:35:16;;;;;;;10.77;9.77;;;23.00;67.30;;;;;;5099019;28;20662;-82
2021/07/13 00:37:42;;;;;;;11.50;10.40;;;23.00;67.20;;;;;;5064959;28;20191;-81
2021/07/13 00:40:08;;;;;;;11.80;10.60;;;23.00;67.20;;;;;;5098595;28;20779;-82
2021/07/13 00:42:37;;;;;;;11.63;10.43;;;23.00;67.30;;;;;;5115655;28;20189;-84
2021/07/13 00:45:04;;;;;;;11.13;10.00;;;23.00;67.30;;;;;;5080446;28;20744;-84
2021/07/13 00:47:29;;;;;;;11.52;10.32;;;23.00;67.30;;;;;;5098181;28;20219;-82
2021/07/13 00:49:55;;;;;;;11.10;10.00;;;23.00;67.40;;;;;;5081673;28;20620;-82
2021/07/13 00:52:26;;;;;;;10.93;9.82;;;23.00;67.40;;;;;;5116047;28;20164;-82
2021/07/13 00:54:53;;;;;;;11.15;10.05;;;23.00;67.40;;;;;;5115806;28;20149;-83
2021/07/13 00:57:24;;;;;;;11.30;10.10;;;23.00;67.30;;;;;;5098474;28;20310;-82
2021/07/13 00:59:51;;;;;;;11.40;10.30;;;23.00;67.30;;;;;;5097100;28;20184;-83
2021/07/13 01:02:18;;;;;;;11.20;10.05;;;23.00;67.30;;;;;;5114813;27;20161;-83
2021/07/13 01:04:51;;;;;;;11.20;10.02;;;23.00;67.30;;;;;;5081457;28;20253;-83
2021/07/13 01:07:46;;;;;;;12.10;10.80;;;23.00;67.30;;;;;;5056747;28;20189;-83
2021/07/13 01:10:19;;;;;;;11.30;10.15;;;23.00;67.70;;;;;;5027073;28;20552;-82
2021/07/13 01:12:56;;;;;;;11.10;10.00;;;23.00;67.40;;;;;;5024617;28;20217;-82
2021/07/13 01:15:33;;;;;;;11.82;10.70;;;23.00;68.20;;;;;;5023784;28;20173;-82
2021/07/13 01:18:03;;;;;;;11.32;10.23;;;23.00;67.30;;;;;;5023767;28;20278;-84
2021/07/13 01:20:55;;;;;;;11.27;10.07;;;23.00;67.30;;;;;;5023923;28;20166;-82
2021/07/13 01:23:37;;;;;;;10.93;9.82;;;23.00;67.30;;;;;;5028802;28;20591;-83
2021/07/13 01:26:37;;;;;;;11.60;10.40;;;23.00;67.30;;;;;;5047126;28;20209;-82
2021/07/13 01:29:06;;;;;;;11.88;10.68;;;23.00;67.40;;;;;;5048463;28;20162;-83
2021/07/13 01:31:34;;;;;;;11.57;10.38;;;23.00;67.40;;;;;;5029629;28;20169;-80
2021/07/13 01:34:03;;;;;;;11.10;10.00;;;22.90;67.30;;;;;;5013257;28;20224;-81
2021/07/13 01:36:39;;;;;;;11.30;10.10;;;23.00;67.40;;;;;;5029833;28;20158;-83
2021/07/13 01:39:05;;;;;;;11.88;10.65;;;23.00;67.40;;;;;;5058569;28;20180;-82
2021/07/13 01:41:31;;;;;;;10.93;9.82;;;23.00;67.40;;;;;;5047008;28;20623;-83
2021/07/13 01:44:03;;;;;;;11.23;10.02;;;22.90;67.30;;;;;;5065063;28;20609;-82
2021/07/13 01:46:34;;;;;;;11.45;10.35;;;23.00;67.40;;;;;;5081517;28;20722;-82
2021/07/13 01:49:01;;;;;;;11.80;10.60;;;22.90;67.30;;;;;;5047032;28;20184;-82
2021/07/13 01:51:30;;;;;;;11.65;10.48;;;22.90;67.30;;;;;;5063285;28;20180;-81
2021/07/13 01:54:06;;;;;;;10.98;9.88;;;22.90;67.40;;;;;;5047335;28;20172;-82
2021/07/13 01:56:36;;;;;;;11.88;10.68;;;22.90;67.40;;;;;;5080349;28;20220;-82
2021/07/13 01:59:07;;;;;;;10.98;9.85;;;22.90;67.30;;;;;;5080131;28;20657;-83
2021/07/13 02:01:36;;;;;;;10.65;9.55;;;22.90;67.30;;;;;;5063787;28;20176;-81
2021/07/13 02:04:03;;;;;;;11.68;10.48;;;22.90;67.40;;;;;;5096395;28;20208;-82
2021/07/13 02:06:30;;;;;;;11.57;10.38;;;22.90;67.40;;;;;;5097663;28;20169;-82
2021/07/13 02:09:00;;;;;;;11.65;10.45;;;22.90;67.40;;;;;;5096974;28;20213;-83
2021/07/13 02:11:29;;;;;;;11.27;10.07;;;22.90;67.40;;;;;;5096816;28;20153;-82
2021/07/13 02:13:56;;;;;;;11.48;10.32;;;22.90;67.40;;;;;;5102032;28;20215;-85
2021/07/13 02:16:22;;;;;;;11.95;10.75;;;22.90;67.40;;;;;;5118154;28;20153;-83
2021/07/13 02:18:49;;;;;;;11.20;10.07;;;22.80;67.30;;;;;;5101775;28;20261;-82
2021/07/13 02:21:19;;;;;;;11.57;10.38;;;22.90;67.40;;;;;;5100744;28;20176;-82
2021/07/13 02:23:46;;;;;;;11.18;10.07;;;22.90;67.40;;;;;;5066426;28;20208;-83
2021/07/13 02:26:23;;;;;;;11.60;10.43;;;22.90;67.40;;;;;;5100462;28;20177;-82
2021/07/13 02:29:01;;;;;;;11.48;10.32;;;22.90;67.50;;;;;;5101035;28;20205;-84
2021/07/13 02:31:36;;;;;;;10.95;9.82;;;22.90;67.50;;;;;;5052417;28;20271;-82
2021/07/13 02:34:07;;;;;;;11.15;10.05;;;22.90;67.50;;;;;;5101295;28;20153;-84
2021/07/13 02:36:41;;;;;;;12.10;10.90;;;22.90;67.50;;;;;;5101710;28;20169;-83
2021/07/13 02:39:08;;;;;;;11.43;10.23;;;22.90;67.50;;;;;;5067961;28;20179;-83
2021/07/13 02:41:36;;;;;;;11.80;10.60;;;22.90;67.40;;;;;;5102016;28;20173;-82
2021/07/13 02:44:03;;;;;;;12.13;10.93;;;22.90;67.40;;;;;;5118806;28;20199;-84
2021/07/13 02:46:40;;;;;;;12.10;10.90;;;22.90;67.40;;;;;;5067123;28;20196;-81
2021/07/13 02:49:10;;;;;;;11.27;10.02;;;22.90;67.40;;;;;;5101703;28;20293;-82
2021/07/13 02:51:37;;;;;;;11.52;10.35;;;22.90;67.50;;;;;;5067273;28;20188;-83
2021/07/13 02:54:09;;;;;;;11.68;10.48;;;22.90;67.40;;;;;;5101222;28;20175;-81
2021/07/13 02:56:36;;;;;;;12.20;11.00;;;22.80;67.40;;;;;;5084123;28;20220;-81
2021/07/13 02:59:06;;;;;;;11.60;10.40;;;22.90;67.50;;;;;;5103145;28;20180;-84
2021/07/13 03:01:43;;;;;;;12.30;11.00;;;22.90;67.50;;;;;;5085389;28;20172;-81
2021/07/13 03:04:11;;;;;;;11.50;10.35;;;22.90;67.50;;;;;;5086687;28;20188;-82
2021/07/13 03:06:45;;;;;;;11.63;10.48;;;22.90;67.50;;;;;;5105215;28;20156;-81
2021/07/13 03:09:11;;;;;;;11.57;10.40;;;22.90;67.50;;;;;;5087854;28;20228;-82
2021/07/13 03:11:37;;;;;;;11.40;10.20;;;22.80;67.40;;;;;;5122847;27;20236;-81
2021/07/13 03:14:03;;;;;;;11.20;10.10;;;22.80;67.60;;;;;;5107806;28;20173;-81
2021/07/13 03:16:33;;;;;;;11.52;10.32;;;22.90;67.60;;;;;;5105809;28;20173;-81
2021/07/13 03:18:59;;;;;;;11.60;10.38;;;22.90;67.60;;;;;;5105792;28;20167;-81
2021/07/13 03:21:28;;;;;;;11.40;10.30;;;22.90;67.60;;;;;;5089909;28;20161;-81
2021/07/13 03:23:59;;;;;;;11.30;10.20;;;22.90;67.60;;;;;;5105001;28;20199;-82
2021/07/13 03:26:31;;;;;;;12.30;11.10;;;22.90;67.60;;;;;;5122585;28;20148;-81
2021/07/13 03:28:57;;;;;;;11.63;10.43;;;22.90;68.50;;;;;;5124237;27;20248;-81
2021/07/13 03:31:26;;;;;;;12.27;11.02;;;22.90;67.70;;;;;;5106201;28;20180;-81
2021/07/13 03:33:51;;;;;;;12.05;10.75;;;22.80;67.60;;;;;;5107832;28;20259;-81
2021/07/13 03:36:19;;;;;;;11.07;9.93;;;22.80;67.60;;;;;;5124678;28;20523;-80
2021/07/13 03:38:45;;;;;;;11.73;10.52;;;22.80;67.60;;;;;;5090417;28;20157;-80
2021/07/13 03:41:11;;;;;;;12.00;10.77;;;22.90;67.70;;;;;;5066033;28;20189;-81
2021/07/13 03:43:37;;;;;;;11.70;10.50;;;22.80;67.70;;;;;;5066551;28;20208;-81
2021/07/13 03:46:05;;;;;;;11.57;10.38;;;22.80;67.60;;;;;;5049126;28;20220;-80
2021/07/13 03:48:33;;;;;;;12.10;10.80;;;22.90;67.70;;;;;;5015949;28;20178;-81
2021/07/13 03:51:05;;;;;;;12.00;10.65;;;22.90;67.60;;;;;;5049125;28;20186;-81
2021/07/13 03:53:33;;;;;;;11.27;10.18;;;22.90;67.60;;;;;;5032472;28;20186;-81
2021/07/13 03:56:01;;;;;;;11.98;10.73;;;22.90;67.60;;;;;;5015889;28;20209;-80
2021/07/13 03:58:33;;;;;;;11.88;10.68;;;22.80;67.50;;;;;;5048575;28;20192;-80
2021/07/13 04:01:03;;;;;;;11.90;10.70;;;22.80;67.50;;;;;;5032299;28;20208;-81
2021/07/13 04:03:34;;;;;;;12.10;10.90;;;22.90;67.60;;;;;;5049387;28;20217;-80
2021/07/13 04:06:01;;;;;;;11.80;10.57;;;22.90;67.50;;;;;;5048499;28;20186;-81
2021/07/13 04:08:32;;;;;;;11.68;10.48;;;22.80;67.40;;;;;;5032392;28;20186;-81
2021/07/13 04:10:59;;;;;;;11.63;10.43;;;22.90;67.50;;;;;;5049222;28;20182;-80
2021/07/13 04:13:27;;;;;;;11.60;10.40;;;22.90;67.40;;;;;;5073442;28;20206;-80
2021/07/13 04:15:58;;;;;;;11.93;10.70;;;23.00;67.50;;;;;;5073159;28;20185;-82
2021/07/13 04:18:28;;;;;;;10.68;9.57;;;22.90;67.70;;;;;;5073203;28;20177;-80
2021/07/13 04:20:58;;;;;;;10.00;9.00;;;22.90;68.10;;;;;;5089947;28;20173;-81
2021/07/13 04:23:25;;;;;;;10.30;9.30;;;22.90;68.40;;;;;;5090107;28;20212;-81
2021/07/13 04:25:52;;;;;;;9.75;8.85;;;22.80;68.80;;;;;;5106852;28;20180;-80
2021/07/13 04:28:19;;;;;;;10.35;9.25;;;22.70;69.40;;;;;;5089400;28;20185;-81
2021/07/13 04:30:51;;;;;;;9.68;8.70;;;22.70;69.90;;;;;;5089345;28;20180;-81
2021/07/13 04:33:18;;;;;;;10.65;9.43;;;22.70;70.40;;;;;;5088294;28;20177;-81
2021/07/13 04:35:51;;;;;;;9.57;8.68;;;22.70;70.60;;;;;;5088119;28;20160;-81
2021/07/13 04:38:18;;;;;;;10.15;9.15;;;22.60;70.50;;;;;;5087863;27;20540;-81
2021/07/13 04:40:44;;;;;;;10.38;9.38;;;22.70;70.00;;;;;;5088421;28;20168;-81
2021/07/13 04:43:10;;;;;;;9.60;8.68;;;22.80;69.80;;;;;;5088855;28;20638;-82
2021/07/13 04:45:37;;;;;;;10.00;9.00;;;22.80;69.20;;;;;;5104091;28;20173;-81
2021/07/13 04:48:08;;;;;;;10.82;9.77;;;22.80;69.20;;;;;;5053596;28;20539;-81
2021/07/13 04:50:35;;;;;;;8.88;8.05;;;22.90;69.00;;;;;;5070661;28;20177;-81
2021/07/13 04:53:08;;;;;;;10.70;9.68;;;22.90;69.50;;;;;;5053579;28;20710;-81
2021/07/13 04:55:38;;;;;;;9.57;8.68;;;23.00;69.20;;;;;;5052484;28;20184;-83
2021/07/13 04:58:05;;;;;;;9.90;9.00;;;23.00;69.60;;;;;;5119397;27;20220;-83
2021/07/13 05:00:35;;;;;;;10.10;9.15;;;22.90;70.10;;;;;;5104726;28;20298;-82
2021/07/13 05:03:05;;;;;;;9.60;8.60;;;22.80;70.70;;;;;;5103444;28;20318;-81
2021/07/13 05:05:34;;;;;;;9.68;8.77;;;22.70;71.40;;;;;;5104201;28;20222;-81
2021/07/13 05:08:00;;;;;;;9.95;8.98;;;22.60;72.00;;;;;;5069657;28;20244;-81
2021/07/13 05:10:26;;;;;;;10.27;9.27;;;22.60;72.40;;;;;;5087207;28;20196;-81
2021/07/13 05:12:57;;;;;;;9.80;8.85;;;22.50;72.70;;;;;;5103892;28;20219;-82
2021/07/13 05:15:28;;;;;;;10.32;9.32;;;22.50;73.00;;;;;;5052106;28;20661;-81
2021/07/13 05:17:58;;;;;;;9.52;8.63;;;22.50;73.50;;;;;;5069642;28;20635;-82
2021/07/13 05:20:26;;;;;;;10.10;9.00;;;22.50;73.70;;;;;;5069810;28;20177;-82
2021/07/13 05:23:06;;;;;;;8.98;8.07;;;22.40;74.10;;;;;;5104315;28;20193;-81
2021/07/13 05:25:33;;;;;;;9.30;8.40;;;22.50;74.40;;;;;;5087939;28;20650;-81
2021/07/13 05:27:59;;;;;;;9.30;8.40;;;22.40;74.70;;;;;;5121249;28;20229;-81
2021/07/13 05:30:30;;;;;;;9.55;8.65;;;22.50;75.30;;;;;;5103819;28;20168;-81
2021/07/13 05:33:00;;;;;;;8.50;7.60;;;22.50;75.00;;;;;;5069853;28;20179;-81
2021/07/13 05:35:26;;;;;;;9.18;8.27;;;22.60;74.90;;;;;;5070660;28;20189;-81
2021/07/13 05:37:58;;;;;;;9.25;8.35;;;22.60;75.00;;;;;;5104429;28;20153;-81
2021/07/13 05:40:24;;;;;;;9.50;8.60;;;22.60;75.10;;;;;;5087243;28;20271;-81
2021/07/13 05:42:51;;;;;;;9.32;8.35;;;22.70;74.90;;;;;;5103828;28;20188;-82
2021/07/13 05:45:28;;;;;;;9.10;8.20;;;22.70;74.90;;;;;;5086489;28;20269;-81
2021/07/13 05:47:58;;;;;;;9.20;8.27;;;22.70;74.70;;;;;;5086659;28;20571;-81
2021/07/13 05:50:27;;;;;;;9.75;8.82;;;22.70;74.80;;;;;;5072951;28;20184;-83
2021/07/13 05:53:01;;;;;;;9.00;8.10;;;22.70;75.00;;;;;;5088821;28;20245;-82
2021/07/13 05:55:30;;;;;;;9.13;8.23;;;22.80;75.00;;;;;;5106639;28;20175;-81
2021/07/13 05:58:02;;;;;;;9.00;8.20;;;22.70;75.20;;;;;;5089606;28;20207;-81
2021/07/13 06:00:35;;;;;;;9.02;8.13;;;22.70;75.20;;;;;;5054982;28;20219;-83
2021/07/13 06:03:06;;;;;;;9.52;8.57;;;22.70;75.30;;;;;;5055138;28;20200;-81
2021/07/13 06:05:38;;;;;;;9.05;8.15;;;22.70;75.40;;;;;;5072313;28;20185;-81
2021/07/13 06:08:12;;;;;;;9.82;8.82;;;22.70;75.60;;;;;;5089341;28;20180;-80
2021/07/13 06:10:40;;;;;;;9.40;8.50;;;22.80;75.80;;;;;;5054778;28;20180;-81
2021/07/13 06:13:09;;;;;;;9.63;8.63;;;22.70;75.70;;;;;;5105593;28;20199;-81
2021/07/13 06:15:39;;;;;;;9.25;8.30;;;22.60;75.90;;;;;;5087822;28;20177;-82
2021/07/13 06:18:10;;;;;;;9.20;8.30;;;22.60;76.10;;;;;;5037572;28;20188;-81
2021/07/13 06:20:40;;;;;;;9.90;8.90;;;22.70;76.30;;;;;;5037860;28;20180;-81
2021/07/13 06:23:08;;;;;;;9.90;8.90;;;22.70;76.00;;;;;;5087152;28;20219;-81
2021/07/13 06:25:42;;;;;;;9.60;8.65;;;22.60;76.00;;;;;;5088242;28;20184;-81
2021/07/13 06:28:10;;;;;;;8.52;7.70;;;22.80;76.20;;;;;;5071576;28;20632;-81
2021/07/13 06:30:40;;;;;;;9.18;8.27;;;22.70;76.00;;;;;;5105496;28;20180;-80
2021/07/13 06:33:07;;;;;;;9.13;8.23;;;22.80;75.70;;;;;;5055366;28;20177;-80
2021/07/13 06:35:38;;;;;;;9.77;8.77;;;22.80;75.60;;;;;;5088318;28;20184;-80
2021/07/13 06:38:08;;;;;;;9.38;8.48;;;22.90;75.20;;;;;;5071636;28;20181;-80
2021/07/13 06:40:37;;;;;;;9.05;8.15;;;22.90;74.50;;;;;;5104237;28;20177;-80
2021/07/13 06:43:08;;;;;;;10.30;9.32;;;22.90;74.40;;;;;;5088074;28;20207;-80
2021/07/13 06:45:35;;;;;;;9.48;8.57;;;22.90;74.80;;;;;;5087304;28;20184;-80
2021/07/13 06:48:07;;;;;;;10.00;9.00;;;23.00;74.40;;;;;;5088561;28;20161;-80
2021/07/13 06:50:34;;;;;;;9.07;8.18;;;23.00;74.00;;;;;;5053668;28;20600;-81
2021/07/13 06:53:06;;;;;;;9.55;8.63;;;23.00;74.00;;;;;;5086667;28;20239;-81
2021/07/13 06:55:34;;;;;;;10.35;9.35;;;23.00;73.90;;;;;;5071184;28;20176;-81
2021/07/13 06:58:04;;;;;;;9.35;8.45;;;23.00;73.70;;;;;;5048383;28;20654;-81
2021/07/13 07:00:38;;;;;;;9.65;8.75;;;23.00;73.80;;;;;;5049809;28;20220;-81
2021/07/13 07:03:06;;;;;;;9.32;8.43;;;23.00;73.50;;;;;;5033296;28;20206;-80
2021/07/13 07:05:36;;;;;;;9.65;8.70;;;23.00;73.50;;;;;;5050200;28;20201;-81
2021/07/13 07:08:08;;;;;;;8.80;7.90;;;23.00;73.40;;;;;;5016835;28;20241;-81
2021/07/13 07:10:38;;;;;;;10.20;9.20;;;23.10;73.10;;;;;;5033265;28;20174;-81
2021/07/13 07:13:05;;;;;;;9.68;8.68;;;23.10;73.20;;;;;;5034296;28;20212;-82
2021/07/13 07:15:33;;;;;;;10.13;9.13;;;23.00;73.40;;;;;;5033395;28;20210;-81
2021/07/13 07:18:06;;;;;;;9.93;8.98;;;23.00;73.50;;;;;;5033572;28;20245;-80
2021/07/13 07:20:38;;;;;;;9.15;8.25;;;23.00;73.60;;;;;;5083355;28;20240;-80
2021/07/13 07:23:04;;;;;;;9.85;8.85;;;23.00;73.40;;;;;;5035045;28;20202;-80
2021/07/13 07:25:38;;;;;;;10.38;9.38;;;23.10;73.00;;;;;;5086093;28;20170;-80
2021/07/13 07:28:08;;;;;;;9.35;8.45;;;23.10;73.00;;;;;;5034950;28;20764;-80
2021/07/13 07:30:35;;;;;;;9.35;8.40;;;23.30;72.90;;;;;;5051397;28;20178;-79
2021/07/13 07:33:02;;;;;;;10.52;9.40;;;23.10;72.90;;;;;;5069703;28;20230;-80
2021/07/13 07:35:31;;;;;;;9.65;8.75;;;23.20;72.70;;;;;;5068723;28;20533;-80
2021/07/13 07:38:03;;;;;;;9.48;8.57;;;23.20;72.70;;;;;;5048868;28;20182;-82
2021/07/13 07:40:31;;;;;;;9.35;8.45;;;23.20;72.80;;;;;;5040425;28;20190;-80
2021/07/13 07:42:58;;;;;;;10.10;9.10;;;23.20;72.40;;;;;;5055890;28;20210;-81
2021/07/13 07:45:27;;;;;;;9.27;8.43;;;23.30;72.40;;;;;;5075487;28;20161;-81
2021/07/13 07:47:56;;;;;;;9.68;8.77;;;23.20;72.40;;;;;;5041884;28;20174;-79
2021/07/13 07:50:26;;;;;;;9.93;8.93;;;23.30;72.40;;;;;;5057915;28;20204;-80
2021/07/13 07:52:55;;;;;;;9.77;8.82;;;23.20;72.30;;;;;;5040306;28;20240;-79
2021/07/13 07:55:26;;;;;;;9.73;8.82;;;23.20;72.30;;;;;;5040957;28;20174;-79
2021/07/13 07:57:57;;;;;;;9.45;8.55;;;23.30;72.40;;;;;;5074258;28;20307;-79
2021/07/13 08:00:27;;;;;;;10.38;9.38;;;23.30;72.20;;;;;;5046464;28;20181;-79
2021/07/13 08:02:58;;;;;;;9.93;8.93;;;23.40;71.90;;;;;;5063288;28;20659;-80
2021/07/13 08:05:30;;;;;;;9.70;8.77;;;23.40;71.60;;;;;;5080815;28;20210;-81
2021/07/13 08:08:00;;;;;;;9.70;8.73;;;23.40;71.50;;;;;;5098180;28;20181;-79
2021/07/13 08:10:31;;;;;;;10.15;9.10;;;23.40;71.80;;;;;;5065086;28;20185;-79
2021/07/13 08:12:59;;;;;;;9.82;8.82;;;23.30;72.10;;;;;;5116854;27;20185;-80
2021/07/13 08:15:26;;;;;;;9.57;8.68;;;23.30;72.00;;;;;;5080645;28;20177;-81
2021/07/13 08:17:58;;;;;;;8.85;8.02;;;23.40;71.80;;;;;;5079449;28;20172;-80
2021/07/13 08:20:28;;;;;;;10.43;9.05;;;23.40;71.50;;;;;;5060814;28;20180;-80
2021/07/13 08:23:01;;;;;;;8.93;8.07;;;23.40;71.50;;;;;;5078316;28;20207;-80
2021/07/13 08:25:39;;;;;;;9.55;8.55;;;23.40;72.40;;;;;;5076233;28;20185;-80
2021/07/13 08:28:09;;;;;;;9.27;8.38;;;23.30;71.60;;;;;;5092506;28;20184;-79
2021/07/13 08:30:40;;;;;;;9.27;8.35;;;23.40;72.30;;;;;;5093072;28;20180;-81
2021/07/13 08:33:09;;;;;;;9.65;8.75;;;23.40;71.50;;;;;;5111456;28;20188;-80
2021/07/13 08:35:41;;;;;;;9.82;8.32;;;23.40;71.50;;;;;;5078599;28;20185;-79
2021/07/13 08:38:10;;;;;;;9.93;8.98;;;23.30;71.90;;;;;;5097159;28;20169;-80
2021/07/13 08:40:43;;;;;;;9.50;8.52;;;23.20;72.10;;;;;;5063184;28;20172;-80
2021/07/13 08:43:09;;;;;;;9.73;8.82;;;23.20;72.40;;;;;;5096130;28;20329;-79
2021/07/13 08:45:39;;;;;;;10.05;9.05;;;23.20;72.40;;;;;;5097362;28;20185;-79
2021/07/13 08:48:11;;;;;;;10.25;9.25;;;23.20;72.60;;;;;;5095668;28;20187;-80
2021/07/13 08:50:38;;;;;;;10.45;9.45;;;23.20;72.60;;;;;;5096220;28;20181;-80
2021/07/13 08:53:05;;;;;;;10.05;9.05;;;23.20;72.50;;;;;;5095775;28;20314;-80
2021/07/13 08:55:34;;;;;;;9.68;8.77;;;23.20;72.50;;;;;;5096354;27;20240;-79
2021/07/13 08:58:05;;;;;;;9.35;8.45;;;23.20;72.90;;;;;;5063663;28;20226;-80
2021/07/13 09:00:35;;;;;;;9.40;8.48;;;23.20;72.40;;;;;;5077076;28;20180;-80
2021/07/13 09:03:11;;;;;;;9.43;8.50;;;23.30;72.00;;;;;;5076790;28;20268;-80
2021/07/13 09:05:44;;;;;;;10.05;9.05;;;23.30;72.10;;;;;;5078042;28;20180;-80
2021/07/13 09:08:12;;;;;;;10.00;9.00;;;23.40;71.90;;;;;;5093830;28;20188;-79
2021/07/13 09:10:39;;;;;;;10.40;9.40;;;23.30;71.80;;;;;;5093741;28;20171;-79
2021/07/13 09:13:06;;;;;;;9.20;8.30;;;23.30;71.90;;;;;;5093363;28;20579;-79
2021/07/13 09:15:32;;;;;;;10.23;9.23;;;23.30;72.00;;;;;;5127950;28;20168;-79
2021/07/13 09:18:01;;;;;;;10.00;9.00;;;23.20;72.30;;;;;;5110979;28;20145;-79
2021/07/13 09:20:32;;;;;;;9.85;8.90;;;23.20;72.20;;;;;;5077536;28;20164;-80
2021/07/13 09:23:04;;;;;;;9.05;8.15;;;23.30;72.00;;;;;;5076180;28;20208;-79
2021/07/13 09:25:40;;;;;;;9.27;8.38;;;23.30;72.00;;;;;;5061108;28;20196;-79
2021/07/13 09:28:16;;;;;;;10.18;9.15;;;23.30;72.00;;;;;;5093456;28;20184;-79
2021/07/13 09:30:49;;;;;;;9.68;8.75;;;23.30;71.80;;;;;;5060836;28;20164;-80
2021/07/13 09:33:17;;;;;;;9.18;8.27;;;23.40;71.80;;;;;;5078286;28;20183;-79
2021/07/13 09:36:07;;;;;;;9.48;8.57;;;23.50;71.30;;;;;;5093864;28;20192;-79
2021/07/13 09:38:37;;;;;;;10.13;9.10;;;23.50;71.40;;;;;;5094293;28;20202;-79
2021/07/13 09:41:17;;;;;;;8.68;7.82;;;23.40;71.40;;;;;;5093613;28;20599;-80
2021/07/13 09:44:04;;;;;;;9.55;8.65;;;23.40;71.40;;;;;;5079287;28;20222;-80
2021/07/13 09:46:39;;;;;;;10.13;9.13;;;23.50;71.30;;;;;;5059790;28;20206;-80
2021/07/13 09:49:24;;;;;;;9.23;8.35;;;23.40;71.40;;;;;;5060381;28;20257;-80
2021/07/13 09:52:02;;;;;;;9.50;8.60;;;23.30;71.40;;;;;;5094672;28;20176;-80
2021/07/13 09:54:46;;;;;;;8.68;7.80;;;23.40;71.40;;;;;;5076595;28;20558;-80
2021/07/13 09:57:16;;;;;;;9.63;8.73;;;23.40;71.40;;;;;;5076707;28;20216;-80
2021/07/13 09:59:47;;;;;;;9.85;8.85;;;23.40;71.20;;;;;;5094183;28;20180;-80
2021/07/13 10:02:18;;;;;;;9.40;8.45;;;23.40;71.20;;;;;;5128242;28;20188;-81
2021/07/13 10:04:47;;;;;;;9.23;8.32;;;23.50;71.20;;;;;;5093519;28;20236;-80
2021/07/13 10:07:18;;;;;;;9.93;8.93;;;23.50;71.10;;;;;;5127024;28;20179;-81
2021/07/13 10:09:50;;;;;;;10.13;9.13;;;23.40;71.10;;;;;;5091939;28;20168;-81
2021/07/13 10:12:17;;;;;;;9.43;8.52;;;23.40;71.10;;;;;;5108679;28;20225;-80
2021/07/13 10:14:50;;;;;;;9.77;8.77;;;23.40;71.90;;;;;;5125703;28;20176;-81
2021/07/13 10:17:22;;;;;;;9.98;8.98;;;23.50;71.10;;;;;;5075568;28;20230;-81
2021/07/13 10:20:07;;;;;;;9.60;8.70;;;23.50;71.00;;;;;;5073749;28;20184;-80
2021/07/13 10:22:39;;;;;;;8.95;8.05;;;23.40;71.00;;;;;;5106775;28;20156;-83
2021/07/13 10:25:14;;;;;;;9.15;8.25;;;23.40;71.10;;;;;;5106356;28;20251;-79
2021/07/13 10:27:42;;;;;;;9.55;8.55;;;23.40;72.00;;;;;;5057383;28;20188;-82
2021/07/13 10:30:35;;;;;;;9.05;8.15;;;23.50;70.90;;;;;;5106030;28;20145;-80
2021/07/13 10:33:03;;;;;;;9.23;8.20;;;23.50;70.70;;;;;;5092586;28;20188;-80
2021/07/13 10:35:33;;;;;;;8.98;8.07;;;23.50;70.70;;;;;;5095132;28;20173;-80
2021/07/13 10:38:23;;;;;;;9.43;8.43;;;23.50;70.80;;;;;;5111067;28;20183;-82
2021/07/13 10:40:54;;;;;;;9.65;8.65;;;23.50;70.80;;;;;;5067296;28;20635;-81
2021/07/13 10:43:21;;;;;;;9.68;8.73;;;23.60;70.70;;;;;;5030737;28;20214;-81
2021/07/13 10:45:49;;;;;;;8.98;8.07;;;23.60;70.60;;;;;;5095594;28;20666;-83
2021/07/13 10:48:22;;;;;;;10.13;9.13;;;23.60;70.60;;;;;;5095925;28;20187;-83
2021/07/13 10:51:03;;;;;;;9.60;8.70;;;23.40;70.70;;;;;;5079052;28;20173;-82
2021/07/13 10:53:38;;;;;;;9.70;8.80;;;23.50;70.90;;;;;;5079265;28;20279;-83
2021/07/13 10:56:08;;;;;;;9.00;8.10;;;23.50;71.00;;;;;;5095698;28;20231;-82
2021/07/13 10:58:38;;;;;;;8.55;7.75;;;23.50;71.00;;;;;;5112482;28;20200;-83
2021/07/13 11:01:21;;;;;;;9.07;8.18;;;23.40;71.00;;;;;;5095799;28;20189;-82
2021/07/13 11:03:49;;;;;;;9.18;8.27;;;23.40;71.00;;;;;;5113693;27;20566;-83
2021/07/13 11:06:17;;;;;;;8.65;7.85;;;23.40;70.90;;;;;;5095981;28;20180;-82
2021/07/13 11:08:51;;;;;;;9.05;8.25;;;23.50;70.90;;;;;;5096524;28;20149;-83
2021/07/13 11:11:36;;;;;;;8.68;7.88;;;23.40;70.80;;;;;;5079684;28;20164;-81
2021/07/13 11:14:06;;;;;;;9.48;8.57;;;23.50;70.80;;;;;;5098219;28;20236;-82
2021/07/13 11:16:34;;;;;;;9.05;8.18;;;23.50;70.90;;;;;;5080781;28;20165;-81
2021/07/13 11:19:01;;;;;;;9.25;8.35;;;23.50;70.70;;;;;;5078731;28;20161;-83
2021/07/13 11:21:35;;;;;;;9.60;8.60;;;23.60;70.50;;;;;;5079682;28;20516;-81
2021/07/13 11:24:21;;;;;;;9.00;8.18;;;23.60;70.30;;;;;;5096144;28;20219;-83
2021/07/13 11:26:51;;;;;;;8.77;7.97;;;23.60;70.30;;;;;;5079505;28;20511;-83
2021/07/13 11:29:22;;;;;;;9.77;8.77;;;23.60;70.30;;;;;;5078933;28;20157;-83
2021/07/13 11:31:52;;;;;;;8.70;7.90;;;23.60;70.30;;;;;;5078336;28;20160;-83
2021/07/13 11:34:19;;;;;;;8.95;8.05;;;23.70;70.10;;;;;;5095045;28;20166;-83
2021/07/13 11:36:47;;;;;;;9.38;8.48;;;23.70;70.20;;;;;;5095804;28;20221;-83
2021/07/13 11:39:15;;;;;;;9.68;8.68;;;23.70;70.10;;;;;;5078078;28;20157;-83
2021/07/13 11:41:42;;;;;;;9.20;8.30;;;23.70;70.10;;;;;;5095116;28;20696;-83
2021/07/13 11:44:13;;;;;;;9.30;8.40;;;23.70;69.90;;;;;;5077786;28;20295;-83
2021/07/13 11:46:43;;;;;;;9.00;8.10;;;23.80;69.90;;;;;;5060425;28;20619;-83
2021/07/13 11:49:15;;;;;;;8.55;7.75;;;23.70;69.80;;;;;;5060482;28;20180;-83
2021/07/13 11:51:53;;;;;;;8.82;8.02;;;23.70;69.80;;;;;;5077503;27;20180;-81
2021/07/13 11:54:20;;;;;;;8.60;7.80;;;23.80;69.90;;;;;;5064133;28;20187;-81
2021/07/13 11:56:49;;;;;;;9.18;8.27;;;23.70;69.80;;;;;;5094426;28;20212;-81
2021/07/13 11:59:20;;;;;;;8.88;7.97;;;23.70;69.60;;;;;;5094930;28;20161;-82
2021/07/13 12:01:50;;;;;;;8.27;7.53;;;23.70;69.80;;;;;;5061008;28;20624;-83
2021/07/13 12:04:16;;;;;;;8.68;7.88;;;23.70;69.80;;;;;;5095663;28;20185;-81
2021/07/13 12:06:42;;;;;;;9.13;8.23;;;23.70;69.70;;;;;;5094458;28;20210;-81
2021/07/13 12:09:12;;;;;;;8.50;7.70;;;23.80;69.60;;;;;;5077820;28;20169;-82
2021/07/13 12:11:41;;;;;;;9.20;8.30;;;23.80;69.60;;;;;;5077708;28;20612;-83
2021/07/13 12:14:10;;;;;;;9.05;8.15;;;23.80;69.30;;;;;;5077734;28;20198;-83
2021/07/13 12:16:36;;;;;;;9.05;8.15;;;23.80;69.30;;;;;;5110898;28;20165;-81
2021/07/13 12:19:05;;;;;;;9.20;8.30;;;23.80;69.10;;;;;;5111398;28;20268;-84
2021/07/13 12:21:32;;;;;;;9.40;8.50;;;23.90;69.00;;;;;;5077294;28;20165;-81
2021/07/13 12:24:00;;;;;;;8.40;7.60;;;23.90;69.00;;;;;;5076735;28;20207;-82
2021/07/13 12:26:29;;;;;;;9.23;8.35;;;23.90;68.90;;;;;;5093868;28;20161;-82
2021/07/13 12:29:13;;;;;;;8.75;7.90;;;24.00;68.70;;;;;;5077240;28;20203;-83
2021/07/13 12:31:55;;;;;;;8.15;7.35;;;24.00;68.30;;;;;;5093680;28;20675;-83
2021/07/13 12:34:27;;;;;;;9.18;7.82;;;24.10;68.40;;;;;;5077250;28;20172;-80
2021/07/13 12:37:12;;;;;;;8.70;7.88;;;23.90;68.30;;;;;;5094100;28;20152;-81
2021/07/13 12:39:42;;;;;;;8.52;7.72;;;24.00;69.40;;;;;;5094918;28;20176;-81
2021/07/13 12:42:12;;;;;;;8.10;7.35;;;24.00;68.30;;;;;;5076673;28;20183;-82
2021/07/13 12:44:50;;;;;;;8.98;8.15;;;24.00;68.50;;;;;;5059971;28;20212;-81
2021/07/13 12:47:21;;;;;;;8.70;7.90;;;24.10;69.20;;;;;;5076821;28;20185;-81
2021/07/13 12:50:22;;;;;;;8.88;8.05;;;24.00;68.50;;;;;;5077143;27;20186;-83
2021/07/13 12:53:06;;;;;;;8.18;7.43;;;24.00;68.50;;;;;;5050016;28;20234;-82
2021/07/13 12:55:40;;;;;;;8.45;7.65;;;24.00;68.40;;;;;;5110414;27;20161;-81